Billie H — WCY4992 — position and weather

sailwx.info

Track history (hours):
 
Tides and Currents Weather Stations Pressure Air Temp Water Temp Dewpoint Dewpoint Depression Visibility Wind Speed Wind Dir Waves Ship Positions

Billie H

Owner: BOYER TOWING INC, KETCHIKAN, AK. More information available from US FCC via Universal Licensing System and Coast Guard Vessel Documentation Center.

Last reported at 2017-Jun-23 12:53 UTC. Time now 2017-Jun-23 13:45 UTC.
Position N 51°20' W 127°57'.

Type: Tow > 200 m length. MMSI: 366751770.

Date/timePositionNaut miles runAvg speedWind from/ knotsBaromVisibWave heightAir tempDewpointWater temp
2017-Jun-23 12:53N 51°20' W 127°57'3 6.8
2017-Jun-23 12:28N 51°23' W 127°60'3 6.4
2017-Jun-23 12:00N 51°25' W 128°03'3 6.7
2017-Jun-23 11:30N 51°27' W 128°08'3 6.9
2017-Jun-23 11:01N 51°29' W 128°11'4 7.1
2017-Jun-23 10:31N 51°32' W 128°15'4 7.5
2017-Jun-23 10:00N 51°35' W 128°18'4 7.4
2017-Jun-23 09:31N 51°38' W 128°21'4 7.6
2017-Jun-23 09:01N 51°42' W 128°24'4 7.4
2017-Jun-23 08:30N 51°45' W 128°27'4 7.1
2017-Jun-23 08:00N 51°48' W 128°30'3 6.9
2017-Jun-23 07:31N 51°51' W 128°33'4 7.0
2017-Jun-23 07:00N 51°54' W 128°35'4 7.3
2017-Jun-23 06:30N 51°57' W 128°37'4 7.0
2017-Jun-23 06:00N 52°01' W 128°39'3 6.9
2017-Jun-23 05:30N 52°04' W 128°41'3 6.7
2017-Jun-23 05:00N 52°07' W 128°43'4 6.8
2017-Jun-23 04:29N 52°11' W 128°45'3 6.8
2017-Jun-23 04:00N 52°14' W 128°47'4 7.0
2017-Jun-23 03:27N 52°17' W 128°48'  
2017-Jun-17 20:01N 52°15' W 128°46'1 9.0
2017-Jun-17 19:53N 52°14' W 128°44'4 9.4
2017-Jun-17 19:29N 52°15' W 128°38'4 8.6
2017-Jun-17 19:00N 52°16' W 128°31'5 9.6
2017-Jun-17 18:27N 52°15' W 128°22'5 9.7
2017-Jun-17 17:58N 52°15' W 128°15'18 5.8
2017-Jun-17 14:55N 52°02' W 127°55'4 8.8
2017-Jun-17 14:28N 51°58' W 127°56'9 9.1
2017-Jun-17 13:30N 51°50' W 127°57'5 9.4
2017-Jun-17 13:00N 51°45' W 127°56'5 9.4
2017-Jun-17 12:30N 51°40' W 127°55'5 9.5
2017-Jun-17 12:01N 51°36' W 127°53'5 9.2
2017-Jun-17 11:30N 51°31' W 127°51'5 9.0
2017-Jun-17 11:00N 51°27' W 127°50'102 8.3
2017-Jun-16 22:37N 50°22' W 125°45'110.2
2017-Jun-16 22:28N 50°22' W 125°42'510.3
2017-Jun-16 22:00N 50°22' W 125°35'510.8
2017-Jun-16 21:30N 50°20' W 125°27'5 8.9
2017-Jun-16 21:00N 50°16' W 125°24'510.2
2017-Jun-16 20:31N 50°11' W 125°22'510.7
2017-Jun-16 20:00N 50°07' W 125°18'611.7
2017-Jun-16 19:31N 50°02' W 125°13'510.5
2017-Jun-16 19:00N 49°57' W 125°09'5 9.7
2017-Jun-16 18:30N 49°54' W 125°03'5 9.1
2017-Jun-16 18:00N 49°52' W 124°57'510.5
2017-Jun-16 17:30N 49°49' W 124°51'510.5
2017-Jun-16 17:00N 49°46' W 124°44'610.5
2017-Jun-16 16:27N 49°42' W 124°37'5 9.8
2017-Jun-16 15:54N 49°38' W 124°31'2110.0
2017-Jun-16 13:46N 49°27' W 124°03'1510.0
2017-Jun-16 12:17N 49°19' W 123°44'3 9.7
2017-Jun-16 12:00N 49°17' W 123°41'610.5
2017-Jun-16 11:26N 49°13' W 123°34'410.4
2017-Jun-16 11:00N 49°10' W 123°29'510.0
2017-Jun-16 10:30N 49°06' W 123°24'5 9.1
2017-Jun-16 09:59N 49°03' W 123°19'4 8.7
2017-Jun-16 09:29N 48°60' W 123°15'5 8.9
2017-Jun-16 08:59N 48°57' W 123°10'4 9.4
2017-Jun-16 08:31N 48°54' W 123°04'7 8.8
2017-Jun-16 07:43N 48°48' W 122°60'2 8.2
2017-Jun-16 07:28N 48°46' W 123°02'4 8.8
2017-Jun-16 07:00N 48°44' W 123°07'5 9.4
2017-Jun-16 06:30N 48°42' W 123°13'4 8.0
2017-Jun-16 06:01N 48°38' W 123°14'510.5
2017-Jun-16 05:30N 48°33' W 123°12'511.0
2017-Jun-16 05:00N 48°28' W 123°09'610.0
2017-Jun-16 04:27N 48°23' W 123°13'410.1
2017-Jun-16 04:00N 48°20' W 123°19'510.4
2017-Jun-16 03:29N 48°17' W 123°25'7 9.5
2017-Jun-16 02:47N 48°13' W 123°33'310.1
2017-Jun-16 02:30N 48°13' W 123°37'5 9.9
2017-Jun-16 01:59N 48°13' W 123°45'5 9.8
2017-Jun-16 01:26N 48°13' W 123°53'18 9.3
2017-Jun-15 23:30N 48°19' W 124°18'5 9.1
2017-Jun-15 22:56N 48°22' W 124°25'4 8.7
2017-Jun-15 22:30N 48°23' W 124°30'4 8.2
2017-Jun-15 22:01N 48°25' W 124°36'4 7.4
2017-Jun-15 21:31N 48°26' W 124°41'4 7.9
2017-Jun-15 21:00N 48°25' W 124°47'12 9.2
2017-Jun-15 19:40N 48°15' W 124°57'67 9.1
2017-Jun-15 12:16N 47°10' W 124°35'2 9.5
2017-Jun-15 12:00N 47°07' W 124°34'5 9.9
2017-Jun-15 11:30N 47°02' W 124°33'510.1
2017-Jun-15 11:00N 46°58' W 124°31'510.1
2017-Jun-15 10:30N 46°53' W 124°30'5 9.8
2017-Jun-15 10:00N 46°48' W 124°28'5 9.3
2017-Jun-15 09:30N 46°43' W 124°27'5 9.0
2017-Jun-15 09:00N 46°39' W 124°25'4 8.5
2017-Jun-15 08:30N 46°35' W 124°24'4 8.8
2017-Jun-15 08:00N 46°30' W 124°23'5 9.3
2017-Jun-15 07:30N 46°26' W 124°21'5 9.4
2017-Jun-15 07:00N 46°21' W 124°20'5 9.4
2017-Jun-15 06:30N 46°17' W 124°18'4 7.8
2017-Jun-15 06:00N 46°13' W 124°15'4 8.2
2017-Jun-15 05:30N 46°13' W 124°09'4 8.3
2017-Jun-15 05:00N 46°15' W 124°04'510.1
2017-Jun-15 04:30N 46°13' W 123°58'510.5
2017-Jun-15 04:00N 46°12' W 123°51'5 9.7
2017-Jun-15 03:30N 46°14' W 123°44'5 9.8
2017-Jun-15 03:01N 46°16' W 123°38'5 9.7
2017-Jun-15 02:30N 46°16' W 123°31'4 8.6
2017-Jun-15 02:00N 46°14' W 123°26'5 9.6
2017-Jun-15 01:30N 46°09' W 123°23'510.2
2017-Jun-15 01:00N 46°09' W 123°16'510.8
2017-Jun-15 00:30N 46°11' W 123°09'510.5
2017-Jun-15 00:00N 46°09' W 123°02'611.9
2017-Jun-14 23:30N 46°05' W 122°55'611.4
2017-Jun-14 23:00N 46°00' W 122°51'611.4
2017-Jun-14 22:30N 45°55' W 122°49'611.5
2017-Jun-14 22:00N 45°49' W 122°48'611.3
2017-Jun-14 21:30N 45°44' W 122°46'510.5
2017-Jun-14 21:00N 45°39' W 122°46'1 1.9
2017-Jun-14 20:30N 45°38' W 122°47'0 0.0
2017-Jun-14 20:00N 45°38' W 122°47'0 0.4
2017-Jun-14 19:30N 45°38' W 122°47'1 1.2
2017-Jun-14 19:00N 45°37' W 122°47'0 0.0
2017-Jun-14 18:30N 45°37' W 122°47'0 0.0
2017-Jun-14 18:00N 45°37' W 122°47'0 0.0
2017-Jun-14 17:30N 45°37' W 122°47'0 0.0
2017-Jun-14 17:00N 45°37' W 122°47'0 0.0
2017-Jun-14 16:30N 45°37' W 122°47'1 1.2
2017-Jun-14 16:00N 45°37' W 122°47'3 6.8
2017-Jun-14 15:30N 45°34' W 122°44'0 0.6
2017-Jun-14 15:00N 45°34' W 122°44'0 0.0
2017-Jun-14 14:00N 45°34' W 122°44'0 0.0
2017-Jun-14 13:30N 45°34' W 122°44'0 0.0
2017-Jun-14 13:00N 45°34' W 122°44'1 1.6
2017-Jun-14 12:30N 45°35' W 122°45'3 6.8
2017-Jun-14 12:00N 45°37' W 122°47'0 0.0
2017-Jun-14 11:30N 45°37' W 122°47'0 0.0
2017-Jun-14 11:00N 45°37' W 122°47'0 0.0
2017-Jun-14 10:30N 45°37' W 122°47'0 0.0
2017-Jun-14 10:00N 45°37' W 122°47'0 0.0
2017-Jun-14 09:30N 45°37' W 122°47'0 0.0
2017-Jun-14 09:00N 45°37' W 122°47'0 0.0
2017-Jun-14 08:30N 45°37' W 122°47'0 0.0
2017-Jun-14 08:00N 45°37' W 122°47'0 0.0
2017-Jun-14 07:30N 45°37' W 122°47'0 0.0
2017-Jun-14 07:00N 45°37' W 122°47'0 0.0
2017-Jun-14 06:30N 45°37' W 122°47'0 0.0
2017-Jun-14 06:00N 45°37' W 122°47'0 0.0
2017-Jun-14 05:30N 45°37' W 122°47'0 0.0
2017-Jun-14 05:00N 45°37' W 122°47'0 0.0
2017-Jun-14 04:30N 45°37' W 122°47'0 0.0
2017-Jun-14 04:00N 45°37' W 122°47'0 0.0
2017-Jun-14 03:30N 45°37' W 122°47'0 0.0
2017-Jun-14 03:00N 45°37' W 122°47'0 0.0
2017-Jun-14 02:30N 45°37' W 122°47'0 0.0
2017-Jun-14 02:00N 45°37' W 122°47'0 0.0
2017-Jun-14 01:30N 45°37' W 122°47'0 0.0
2017-Jun-14 01:00N 45°37' W 122°47'0 0.0
2017-Jun-14 00:30N 45°37' W 122°47'0 0.0
2017-Jun-14 00:00N 45°37' W 122°47'0 0.0
2017-Jun-13 23:30N 45°37' W 122°47'0 0.0
2017-Jun-13 23:00N 45°37' W 122°47'0 0.0
2017-Jun-13 22:30N 45°37' W 122°47'0 0.0
2017-Jun-13 22:00N 45°37' W 122°47'0 0.0
2017-Jun-13 21:30N 45°37' W 122°47'0 0.0
2017-Jun-13 21:00N 45°37' W 122°47'0 0.0
2017-Jun-13 20:30N 45°37' W 122°47'0 0.0
2017-Jun-13 20:00N 45°37' W 122°47'0 0.0
2017-Jun-13 19:30N 45°37' W 122°47'0 0.0
2017-Jun-13 19:00N 45°37' W 122°47'0 0.0
2017-Jun-13 18:30N 45°37' W 122°47'0 0.0
2017-Jun-13 18:00N 45°37' W 122°47'0 0.0
2017-Jun-13 17:30N 45°37' W 122°47'0 0.0
2017-Jun-13 17:00N 45°37' W 122°47'0 0.0
2017-Jun-13 16:30N 45°37' W 122°47'0 0.0
2017-Jun-13 16:00N 45°37' W 122°47'0 0.0
2017-Jun-13 15:30N 45°37' W 122°47'0 0.0
2017-Jun-13 15:00N 45°37' W 122°47'0 0.0
2017-Jun-13 14:00N 45°37' W 122°47'0 0.0
2017-Jun-13 13:29N 45°37' W 122°47'0 0.0
2017-Jun-13 13:00N 45°37' W 122°47'  
Track history (hours):
 
Tides and Currents Weather Stations Pressure Air Temp Water Temp Dewpoint Dewpoint Depression Visibility Wind Speed Wind Dir Waves Ship Positions

Billie H

Owner: BOYER TOWING INC, KETCHIKAN, AK. More information available from US FCC via Universal Licensing System and Coast Guard Vessel Documentation Center.

Last reported at 2017-Jun-23 12:53 UTC. Time now 2017-Jun-23 13:45 UTC.
Position N 51°20' W 127°57'.

Type: Tow > 200 m length. MMSI: 366751770.

Date/timePositionNaut miles runAvg speedWind from/ knotsBaromVisibWave heightAir tempDewpointWater temp
2017-Jun-23 12:53N 51°20' W 127°57'3 6.8
2017-Jun-23 12:28N 51°23' W 127°60'3 6.4
2017-Jun-23 12:00N 51°25' W 128°03'3 6.7
2017-Jun-23 11:30N 51°27' W 128°08'3 6.9
2017-Jun-23 11:01N 51°29' W 128°11'4 7.1
2017-Jun-23 10:31N 51°32' W 128°15'4 7.5
2017-Jun-23 10:00N 51°35' W 128°18'4 7.4
2017-Jun-23 09:31N 51°38' W 128°21'4 7.6
2017-Jun-23 09:01N 51°42' W 128°24'4 7.4
2017-Jun-23 08:30N 51°45' W 128°27'4 7.1
2017-Jun-23 08:00N 51°48' W 128°30'3 6.9
2017-Jun-23 07:31N 51°51' W 128°33'4 7.0
2017-Jun-23 07:00N 51°54' W 128°35'4 7.3
2017-Jun-23 06:30N 51°57' W 128°37'4 7.0
2017-Jun-23 06:00N 52°01' W 128°39'3 6.9
2017-Jun-23 05:30N 52°04' W 128°41'3 6.7
2017-Jun-23 05:00N 52°07' W 128°43'4 6.8
2017-Jun-23 04:29N 52°11' W 128°45'3 6.8
2017-Jun-23 04:00N 52°14' W 128°47'4 7.0
2017-Jun-23 03:27N 52°17' W 128°48'  
2017-Jun-17 20:01N 52°15' W 128°46'1 9.0
2017-Jun-17 19:53N 52°14' W 128°44'4 9.4
2017-Jun-17 19:29N 52°15' W 128°38'4 8.6
2017-Jun-17 19:00N 52°16' W 128°31'5 9.6
2017-Jun-17 18:27N 52°15' W 128°22'5 9.7
2017-Jun-17 17:58N 52°15' W 128°15'18 5.8
2017-Jun-17 14:55N 52°02' W 127°55'4 8.8
2017-Jun-17 14:28N 51°58' W 127°56'9 9.1
2017-Jun-17 13:30N 51°50' W 127°57'5 9.4
2017-Jun-17 13:00N 51°45' W 127°56'5 9.4
2017-Jun-17 12:30N 51°40' W 127°55'5 9.5
2017-Jun-17 12:01N 51°36' W 127°53'5 9.2
2017-Jun-17 11:30N 51°31' W 127°51'5 9.0
2017-Jun-17 11:00N 51°27' W 127°50'102 8.3
2017-Jun-16 22:37N 50°22' W 125°45'110.2
2017-Jun-16 22:28N 50°22' W 125°42'510.3
2017-Jun-16 22:00N 50°22' W 125°35'510.8
2017-Jun-16 21:30N 50°20' W 125°27'5 8.9
2017-Jun-16 21:00N 50°16' W 125°24'510.2
2017-Jun-16 20:31N 50°11' W 125°22'510.7
2017-Jun-16 20:00N 50°07' W 125°18'611.7
2017-Jun-16 19:31N 50°02' W 125°13'510.5
2017-Jun-16 19:00N 49°57' W 125°09'5 9.7
2017-Jun-16 18:30N 49°54' W 125°03'5 9.1
2017-Jun-16 18:00N 49°52' W 124°57'510.5
2017-Jun-16 17:30N 49°49' W 124°51'510.5
2017-Jun-16 17:00N 49°46' W 124°44'610.5
2017-Jun-16 16:27N 49°42' W 124°37'5 9.8
2017-Jun-16 15:54N 49°38' W 124°31'2110.0
2017-Jun-16 13:46N 49°27' W 124°03'1510.0
2017-Jun-16 12:17N 49°19' W 123°44'3 9.7
2017-Jun-16 12:00N 49°17' W 123°41'610.5
2017-Jun-16 11:26N 49°13' W 123°34'410.4
2017-Jun-16 11:00N 49°10' W 123°29'510.0
2017-Jun-16 10:30N 49°06' W 123°24'5 9.1
2017-Jun-16 09:59N 49°03' W 123°19'4 8.7
2017-Jun-16 09:29N 48°60' W 123°15'5 8.9
2017-Jun-16 08:59N 48°57' W 123°10'4 9.4
2017-Jun-16 08:31N 48°54' W 123°04'7 8.8
2017-Jun-16 07:43N 48°48' W 122°60'2 8.2
2017-Jun-16 07:28N 48°46' W 123°02'4 8.8
2017-Jun-16 07:00N 48°44' W 123°07'5 9.4
2017-Jun-16 06:30N 48°42' W 123°13'4 8.0
2017-Jun-16 06:01N 48°38' W 123°14'510.5
2017-Jun-16 05:30N 48°33' W 123°12'511.0
2017-Jun-16 05:00N 48°28' W 123°09'610.0
2017-Jun-16 04:27N 48°23' W 123°13'410.1
2017-Jun-16 04:00N 48°20' W 123°19'510.4
2017-Jun-16 03:29N 48°17' W 123°25'7 9.5
2017-Jun-16 02:47N 48°13' W 123°33'310.1
2017-Jun-16 02:30N 48°13' W 123°37'5 9.9
2017-Jun-16 01:59N 48°13' W 123°45'5 9.8
2017-Jun-16 01:26N 48°13' W 123°53'18 9.3
2017-Jun-15 23:30N 48°19' W 124°18'5 9.1
2017-Jun-15 22:56N 48°22' W 124°25'4 8.7
2017-Jun-15 22:30N 48°23' W 124°30'4 8.2
2017-Jun-15 22:01N 48°25' W 124°36'4 7.4
2017-Jun-15 21:31N 48°26' W 124°41'4 7.9
2017-Jun-15 21:00N 48°25' W 124°47'12 9.2
2017-Jun-15 19:40N 48°15' W 124°57'67 9.1
2017-Jun-15 12:16N 47°10' W 124°35'2 9.5
2017-Jun-15 12:00N 47°07' W 124°34'5 9.9
2017-Jun-15 11:30N 47°02' W 124°33'510.1
2017-Jun-15 11:00N 46°58' W 124°31'510.1
2017-Jun-15 10:30N 46°53' W 124°30'5 9.8
2017-Jun-15 10:00N 46°48' W 124°28'5 9.3
2017-Jun-15 09:30N 46°43' W 124°27'5 9.0
2017-Jun-15 09:00N 46°39' W 124°25'4 8.5
2017-Jun-15 08:30N 46°35' W 124°24'4 8.8
2017-Jun-15 08:00N 46°30' W 124°23'5 9.3
2017-Jun-15 07:30N 46°26' W 124°21'5 9.4
2017-Jun-15 07:00N 46°21' W 124°20'5 9.4
2017-Jun-15 06:30N 46°17' W 124°18'4 7.8
2017-Jun-15 06:00N 46°13' W 124°15'4 8.2
2017-Jun-15 05:30N 46°13' W 124°09'4 8.3
2017-Jun-15 05:00N 46°15' W 124°04'510.1
2017-Jun-15 04:30N 46°13' W 123°58'510.5
2017-Jun-15 04:00N 46°12' W 123°51'5 9.7
2017-Jun-15 03:30N 46°14' W 123°44'5 9.8
2017-Jun-15 03:01N 46°16' W 123°38'5 9.7
2017-Jun-15 02:30N 46°16' W 123°31'4 8.6
2017-Jun-15 02:00N 46°14' W 123°26'5 9.6
2017-Jun-15 01:30N 46°09' W 123°23'510.2
2017-Jun-15 01:00N 46°09' W 123°16'510.8
2017-Jun-15 00:30N 46°11' W 123°09'510.5
2017-Jun-15 00:00N 46°09' W 123°02'611.9
2017-Jun-14 23:30N 46°05' W 122°55'611.4
2017-Jun-14 23:00N 46°00' W 122°51'611.4
2017-Jun-14 22:30N 45°55' W 122°49'611.5
2017-Jun-14 22:00N 45°49' W 122°48'611.3
2017-Jun-14 21:30N 45°44' W 122°46'510.5
2017-Jun-14 21:00N 45°39' W 122°46'1 1.9
2017-Jun-14 20:30N 45°38' W 122°47'0 0.0
2017-Jun-14 20:00N 45°38' W 122°47'0 0.4
2017-Jun-14 19:30N 45°38' W 122°47'1 1.2
2017-Jun-14 19:00N 45°37' W 122°47'0 0.0
2017-Jun-14 18:30N 45°37' W 122°47'0 0.0
2017-Jun-14 18:00N 45°37' W 122°47'0 0.0
2017-Jun-14 17:30N 45°37' W 122°47'0 0.0
2017-Jun-14 17:00N 45°37' W 122°47'0 0.0
2017-Jun-14 16:30N 45°37' W 122°47'1 1.2
2017-Jun-14 16:00N 45°37' W 122°47'3 6.8
2017-Jun-14 15:30N 45°34' W 122°44'0 0.6
2017-Jun-14 15:00N 45°34' W 122°44'0 0.0
2017-Jun-14 14:00N 45°34' W 122°44'0 0.0
2017-Jun-14 13:30N 45°34' W 122°44'0 0.0
2017-Jun-14 13:00N 45°34' W 122°44'1 1.6
2017-Jun-14 12:30N 45°35' W 122°45'3 6.8
2017-Jun-14 12:00N 45°37' W 122°47'0 0.0
2017-Jun-14 11:30N 45°37' W 122°47'0 0.0
2017-Jun-14 11:00N 45°37' W 122°47'0 0.0
2017-Jun-14 10:30N 45°37' W 122°47'0 0.0
2017-Jun-14 10:00N 45°37' W 122°47'0 0.0
2017-Jun-14 09:30N 45°37' W 122°47'0 0.0
2017-Jun-14 09:00N 45°37' W 122°47'0 0.0
2017-Jun-14 08:30N 45°37' W 122°47'0 0.0
2017-Jun-14 08:00N 45°37' W 122°47'0 0.0
2017-Jun-14 07:30N 45°37' W 122°47'0 0.0
2017-Jun-14 07:00N 45°37' W 122°47'0 0.0
2017-Jun-14 06:30N 45°37' W 122°47'0 0.0
2017-Jun-14 06:00N 45°37' W 122°47'0 0.0
2017-Jun-14 05:30N 45°37' W 122°47'0 0.0
2017-Jun-14 05:00N 45°37' W 122°47'0 0.0
2017-Jun-14 04:30N 45°37' W 122°47'0 0.0
2017-Jun-14 04:00N 45°37' W 122°47'0 0.0
2017-Jun-14 03:30N 45°37' W 122°47'0 0.0
2017-Jun-14 03:00N 45°37' W 122°47'0 0.0
2017-Jun-14 02:30N 45°37' W 122°47'0 0.0
2017-Jun-14 02:00N 45°37' W 122°47'0 0.0
2017-Jun-14 01:30N 45°37' W 122°47'0 0.0
2017-Jun-14 01:00N 45°37' W 122°47'0 0.0
2017-Jun-14 00:30N 45°37' W 122°47'0 0.0
2017-Jun-14 00:00N 45°37' W 122°47'0 0.0
2017-Jun-13 23:30N 45°37' W 122°47'0 0.0
2017-Jun-13 23:00N 45°37' W 122°47'0 0.0
2017-Jun-13 22:30N 45°37' W 122°47'0 0.0
2017-Jun-13 22:00N 45°37' W 122°47'0 0.0
2017-Jun-13 21:30N 45°37' W 122°47'0 0.0
2017-Jun-13 21:00N 45°37' W 122°47'0 0.0
2017-Jun-13 20:30N 45°37' W 122°47'0 0.0
2017-Jun-13 20:00N 45°37' W 122°47'0 0.0
2017-Jun-13 19:30N 45°37' W 122°47'0 0.0
2017-Jun-13 19:00N 45°37' W 122°47'0 0.0
2017-Jun-13 18:30N 45°37' W 122°47'0 0.0
2017-Jun-13 18:00N 45°37' W 122°47'0 0.0
2017-Jun-13 17:30N 45°37' W 122°47'0 0.0
2017-Jun-13 17:00N 45°37' W 122°47'0 0.0
2017-Jun-13 16:30N 45°37' W 122°47'0 0.0
2017-Jun-13 16:00N 45°37' W 122°47'0 0.0
2017-Jun-13 15:30N 45°37' W 122°47'0 0.0
2017-Jun-13 15:00N 45°37' W 122°47'0 0.0
2017-Jun-13 14:00N 45°37' W 122°47'0 0.0
2017-Jun-13 13:29N 45°37' W 122°47'0 0.0
2017-Jun-13 13:00N 45°37' W 122°47'  

Dump ship's entire track history